Time;durP1;ratioP1;P1;durP2;ratioP2;P2;SDS_P1;SDS_P2;PMS_P1;PMS_P2;Temp;Humidity;BMP_temperature;BMP_pressure;BME280_temperature;BME280_humidity;BME280_pressure;Samples;Min_cycle;Max_cycle;Signal;HPM_P1;HPM_P2
2022/05/28 00:02:02;;;;;;;;;;;15.60;91.10;;;;;;4303784;33;43694;-74
2022/05/28 00:04:34;;;;;;;;;;;15.60;90.80;;;;;;4316974;33;43666;-74
2022/05/28 00:07:08;;;;;;;;;;;15.60;91.10;;;;;;4304413;33;43687;-74
2022/05/28 00:09:35;;;;;;;;;;;15.60;91.20;;;;;;4304560;33;43749;-74
2022/05/28 00:12:02;;;;;;;;;;;15.60;90.60;;;;;;4317150;33;43703;-74
2022/05/28 00:14:31;;;;;;;;;;;15.50;90.60;;;;;;4303737;33;43027;-74
2022/05/28 00:17:05;;;;;;;;;;;15.50;90.70;;;;;;4317133;33;43642;-74
2022/05/28 00:19:34;;;;;;;;;;;15.50;91.00;;;;;;4317120;33;43704;-74
2022/05/28 00:22:07;;;;;;;;;;;15.50;90.90;;;;;;4303624;33;43787;-74
2022/05/28 00:24:34;;;;;;;;;;;15.50;91.10;;;;;;4317748;33;20375;-74
2022/05/28 00:27:02;;;;;;;;;;;15.50;91.10;;;;;;4303488;33;44350;-74
2022/05/28 00:29:38;;;;;;;;;;;15.50;91.10;;;;;;4317156;33;43072;-74
2022/05/28 00:32:11;;;;;;;;;;;15.50;91.20;;;;;;4316918;33;45121;-74
2022/05/28 00:34:40;;;;;;;;;;;15.50;90.80;;;;;;4316966;33;42529;-74
2022/05/28 00:37:09;;;;;;;;;;;15.40;90.90;;;;;;4316556;33;43675;-74
2022/05/28 00:39:42;;;;;;;;;;;15.40;90.90;;;;;;4316956;33;43920;-74
2022/05/28 00:42:09;;;;;;;;;;;15.40;90.80;;;;;;4316396;33;43494;-74
2022/05/28 00:44:36;;;;;;;;;;;15.40;90.70;;;;;;4316383;33;43155;-74
2022/05/28 00:47:04;;;;;;;;;;;15.40;90.80;;;;;;4303400;33;43305;-74
2022/05/28 00:49:34;;;;;;;;;;;15.30;90.70;;;;;;4316929;33;44267;-74
2022/05/28 00:52:02;;;;;;;;;;;15.30;91.00;;;;;;4316420;33;42898;-74
2022/05/28 00:54:32;;;;;;;;;;;15.30;90.50;;;;;;4316665;33;42485;-74
2022/05/28 00:57:01;;;;;;;;;;;15.30;90.80;;;;;;4316304;33;42866;-74
2022/05/28 00:59:31;;;;;;;;;;;15.30;90.90;;;;;;4316256;33;43776;-74
2022/05/28 01:02:05;;;;;;;;;;;15.30;90.90;;;;;;4316203;33;42210;-74
2022/05/28 01:04:41;;;;;;;;;;;15.30;91.10;;;;;;4316117;33;44197;-74
2022/05/28 01:07:17;;;;;;;;;;;15.30;91.10;;;;;;4316473;33;42747;-74
2022/05/28 01:09:59;;;;;;;;;;;15.20;90.40;;;;;;4316549;33;43644;-74
2022/05/28 01:12:38;;;;;;;;;;;15.20;90.60;;;;;;4316133;33;43539;-74
2022/05/28 01:15:14;;;;;;;;;;;15.10;90.60;;;;;;4316505;33;44879;-74
2022/05/28 01:17:46;;;;;;;;;;;15.10;90.40;;;;;;4316151;33;42582;-74
2022/05/28 01:20:20;;;;;;;;;;;15.10;90.80;;;;;;4316349;33;44179;-74
2022/05/28 01:22:56;;;;;;;;;;;15.10;90.80;;;;;;4303314;33;43934;-74
2022/05/28 01:25:44;;;;;;;;;;;15.10;90.20;;;;;;4303501;33;43075;-74
2022/05/28 01:28:16;;;;;;;;;;;15.00;90.30;;;;;;4303369;33;45721;-74
2022/05/28 01:30:46;;;;;;;;;;;15.00;90.50;;;;;;4316201;33;42898;-74
2022/05/28 01:33:16;;;;;;;;;;;14.90;90.70;;;;;;4316272;33;44256;-74
2022/05/28 01:35:48;;;;;;;;;;;15.00;90.80;;;;;;4315848;33;43730;-74
2022/05/28 01:38:16;;;;;;;;;;;14.90;90.40;;;;;;4303172;33;44240;-74
2022/05/28 01:40:49;;;;;;;;;;;14.90;90.40;;;;;;4316125;33;43260;-74
2022/05/28 01:43:17;;;;;;;;;;;14.80;90.20;;;;;;4316282;33;42718;-74
2022/05/28 01:45:46;;;;;;;;;;;14.80;90.60;;;;;;4315776;33;43658;-74
2022/05/28 01:48:13;;;;;;;;;;;14.80;90.80;;;;;;4316029;33;43009;-74
2022/05/28 01:50:45;;;;;;;;;;;14.80;90.60;;;;;;4316176;33;43826;-74
2022/05/28 01:54:07;;;;;;;;;;;14.70;90.40;;;;;;4316021;33;45188;-74
2022/05/28 01:56:06;;;;;;;;;;;14.80;90.70;;;;;;4316131;33;43077;-74
2022/05/28 01:58:33;;;;;;;;;;;14.70;90.60;;;;;;4316062;33;43017;-74
2022/05/28 02:01:01;;;;;;;;;;;14.70;90.90;;;;;;4315810;33;43778;-74
2022/05/28 02:03:31;;;;;;;;;;;14.70;90.80;;;;;;4315400;33;43068;-73
2022/05/28 02:05:58;;;;;;;;;;;14.70;90.80;;;;;;4315843;33;44016;-74
2022/05/28 02:08:28;;;;;;;;;;;14.70;90.90;;;;;;4315476;33;42581;-73
2022/05/28 02:10:59;;;;;;;;;;;14.70;91.10;;;;;;4302351;33;43725;-74
2022/05/28 02:13:33;;;;;;;;;;;14.70;91.00;;;;;;4315902;33;43041;-74
2022/05/28 02:16:05;;;;;;;;;;;14.70;90.60;;;;;;4318692;33;43034;-74
2022/05/28 02:18:49;;;;;;;;;;;14.70;91.00;;;;;;4318975;33;44749;-73
2022/05/28 02:21:19;;;;;;;;;;;14.70;91.10;;;;;;4318414;33;43615;-73
2022/05/28 02:23:53;;;;;;;;;;;14.70;91.20;;;;;;4305136;33;43667;-73
2022/05/28 02:26:35;;;;;;;;;;;14.70;91.20;;;;;;4318339;33;42343;-73
2022/05/28 02:29:03;;;;;;;;;;;14.70;91.00;;;;;;4306383;33;20006;-73
2022/05/28 02:31:35;;;;;;;;;;;14.70;91.10;;;;;;4318267;33;43734;-73
2022/05/28 02:34:03;;;;;;;;;;;14.70;91.00;;;;;;4305711;33;45714;-73
2022/05/28 02:36:32;;;;;;;;;;;14.70;90.80;;;;;;4318548;33;43597;-73
2022/05/28 02:38:59;;;;;;;;;;;14.70;90.90;;;;;;4318795;33;43918;-73
2022/05/28 02:41:26;;;;;;;;;;;14.60;91.10;;;;;;4318611;33;43700;-73
2022/05/28 02:43:53;;;;;;;;;;;14.60;91.10;;;;;;4305103;33;42458;-73
2022/05/28 02:46:23;;;;;;;;;;;14.60;91.00;;;;;;4317971;33;44277;-73
2022/05/28 02:48:50;;;;;;;;;;;14.60;91.10;;;;;;4318131;33;43545;-73
2022/05/28 02:51:20;;;;;;;;;;;14.60;91.20;;;;;;4317910;33;42381;-73
2022/05/28 02:53:51;;;;;;;;;;;14.60;90.90;;;;;;4304917;33;43625;-73
2022/05/28 02:56:19;;;;;;;;;;;14.60;91.20;;;;;;4318416;33;42871;-73
2022/05/28 02:58:48;;;;;;;;;;;14.60;91.20;;;;;;4317919;33;44065;-73
2022/05/28 03:01:23;;;;;;;;;;;14.60;91.10;;;;;;4318438;33;43747;-73
2022/05/28 03:03:53;;;;;;;;;;;14.60;91.00;;;;;;4317822;33;44065;-73
2022/05/28 03:06:22;;;;;;;;;;;14.50;91.10;;;;;;4318143;33;43535;-73
2022/05/28 03:08:52;;;;;;;;;;;14.50;91.30;;;;;;4318133;33;43452;-73
2022/05/28 03:11:20;;;;;;;;;;;14.50;91.80;;;;;;4304750;33;42450;-73
2022/05/28 03:13:47;;;;;;;;;;;14.50;91.00;;;;;;4317631;33;43210;-73
2022/05/28 03:16:17;;;;;;;;;;;14.50;91.10;;;;;;4304606;33;43092;-73
2022/05/28 03:18:45;;;;;;;;;;;14.50;91.30;;;;;;4305144;33;43494;-73
2022/05/28 03:21:12;;;;;;;;;;;14.50;91.40;;;;;;4318208;33;43016;-73
2022/05/28 03:23:47;;;;;;;;;;;14.50;91.40;;;;;;4318010;33;43577;-73
2022/05/28 03:26:21;;;;;;;;;;;14.50;91.40;;;;;;4316906;33;42583;-73
2022/05/28 03:28:52;;;;;;;;;;;14.40;91.30;;;;;;4304706;33;42542;-73
2022/05/28 03:31:19;;;;;;;;;;;14.40;91.20;;;;;;4318412;33;19998;-73
2022/05/28 03:33:50;;;;;;;;;;;14.40;91.30;;;;;;4304250;33;42504;-73
2022/05/28 03:36:21;;;;;;;;;;;14.40;91.50;;;;;;4317463;33;42847;-73
2022/05/28 03:38:50;;;;;;;;;;;14.40;91.50;;;;;;4318040;33;43696;-73
2022/05/28 03:41:18;;;;;;;;;;;14.40;91.50;;;;;;4317761;33;43746;-73
2022/05/28 03:43:47;;;;;;;;;;;14.40;91.40;;;;;;4317550;33;42890;-73
2022/05/28 03:46:22;;;;;;;;;;;14.40;91.30;;;;;;4317939;33;43017;-73
2022/05/28 03:48:49;;;;;;;;;;;14.40;91.50;;;;;;4317588;33;44157;-73
2022/05/28 03:51:17;;;;;;;;;;;14.30;91.60;;;;;;4304306;33;43090;-73
2022/05/28 03:53:49;;;;;;;;;;;14.40;91.50;;;;;;4317128;33;43292;-73
2022/05/28 03:56:19;;;;;;;;;;;14.30;91.50;;;;;;4317156;33;42870;-73
2022/05/28 03:58:47;;;;;;;;;;;14.30;91.50;;;;;;4317129;33;43520;-73
2022/05/28 04:01:14;;;;;;;;;;;14.30;91.40;;;;;;4317216;33;44235;-73
2022/05/28 04:03:46;;;;;;;;;;;14.30;91.60;;;;;;4304602;33;43732;-73
2022/05/28 04:06:14;;;;;;;;;;;14.30;91.70;;;;;;4304514;33;43711;-73
2022/05/28 04:09:01;;;;;;;;;;;14.30;91.60;;;;;;4304208;33;42511;-73
2022/05/28 04:11:31;;;;;;;;;;;14.30;91.50;;;;;;4317192;33;45452;-73
2022/05/28 04:13:59;;;;;;;;;;;14.20;91.50;;;;;;4316874;33;42619;-73
2022/05/28 04:16:28;;;;;;;;;;;14.20;91.70;;;;;;4316972;33;43656;-73
2022/05/28 04:19:01;;;;;;;;;;;14.20;91.80;;;;;;4317316;33;43741;-74
2022/05/28 04:21:28;;;;;;;;;;;14.20;91.70;;;;;;4304215;33;43669;-73
2022/05/28 04:23:55;;;;;;;;;;;14.20;91.90;;;;;;4316713;33;43021;-73
2022/05/28 04:26:26;;;;;;;;;;;14.20;92.00;;;;;;4303645;33;43747;-73
2022/05/28 04:28:59;;;;;;;;;;;14.20;92.00;;;;;;4305646;33;20445;-74
2022/05/28 04:31:26;;;;;;;;;;;14.20;92.10;;;;;;4316903;33;43694;-73
2022/05/28 04:33:54;;;;;;;;;;;14.20;92.10;;;;;;4316909;33;43472;-73
2022/05/28 04:36:21;;;;;;;;;;;14.20;92.10;;;;;;4316934;33;44890;-73
2022/05/28 04:38:48;;;;;;;;;;;14.20;92.00;;;;;;4303211;33;43887;-73
2022/05/28 04:41:20;;;;;;;;;;;14.10;92.10;;;;;;4316410;33;45788;-73
2022/05/28 04:43:53;;;;;;;;;;;14.20;92.20;;;;;;4303316;33;44194;-73
2022/05/28 04:46:20;;;;;;;;;;;14.20;92.30;;;;;;4316927;33;45909;-73
2022/05/28 04:48:50;;;;;;;;;;;14.10;92.20;;;;;;4316824;33;43775;-73
2022/05/28 04:51:17;;;;;;;;;;;14.10;92.30;;;;;;4316714;33;42192;-73
2022/05/28 04:53:45;;;;;;;;;;;14.10;92.30;;;;;;4316943;33;43139;-74
2022/05/28 04:56:14;;;;;;;;;;;14.10;92.40;;;;;;4316471;33;42136;-73
2022/05/28 04:58:42;;;;;;;;;;;14.10;92.50;;;;;;4316474;33;42592;-73
2022/05/28 05:01:16;;;;;;;;;;;14.10;92.50;;;;;;4316174;33;42746;-73
2022/05/28 05:03:44;;;;;;;;;;;14.10;92.60;;;;;;4317242;33;19998;-76
2022/05/28 05:06:17;;;;;;;;;;;14.10;92.60;;;;;;4316578;33;44985;-73
2022/05/28 05:08:45;;;;;;;;;;;14.10;92.80;;;;;;4316213;33;43687;-73
2022/05/28 05:11:17;;;;;;;;;;;14.10;92.90;;;;;;4316191;33;44494;-73
2022/05/28 05:13:44;;;;;;;;;;;14.10;93.00;;;;;;4316365;33;42839;-73
2022/05/28 05:16:12;;;;;;;;;;;14.10;93.10;;;;;;4316042;33;42848;-74
2022/05/28 05:18:42;;;;;;;;;;;14.10;93.20;;;;;;4316348;33;42902;-73
2022/05/28 05:21:12;;;;;;;;;;;14.10;93.30;;;;;;4302866;33;43490;-73
2022/05/28 05:23:42;;;;;;;;;;;14.10;93.40;;;;;;4303655;33;42933;-73
2022/05/28 05:26:15;;;;;;;;;;;14.10;93.50;;;;;;4316092;33;43540;-73
2022/05/28 05:28:47;;;;;;;;;;;14.10;93.60;;;;;;4316379;33;43071;-73
2022/05/28 05:31:16;;;;;;;;;;;14.10;93.70;;;;;;4315926;33;43662;-73
2022/05/28 05:33:43;;;;;;;;;;;14.10;93.80;;;;;;4316514;33;20424;-74
2022/05/28 05:36:13;;;;;;;;;;;14.10;93.70;;;;;;4315700;33;43582;-74
2022/05/28 05:38:41;;;;;;;;;;;14.10;93.90;;;;;;4316444;33;43090;-73
2022/05/28 05:41:11;;;;;;;;;;;14.10;94.00;;;;;;4303102;33;43048;-75
2022/05/28 05:43:41;;;;;;;;;;;14.20;94.10;;;;;;4315619;33;44192;-73
2022/05/28 05:46:08;;;;;;;;;;;14.20;94.10;;;;;;4302583;33;43760;-73
2022/05/28 05:48:41;;;;;;;;;;;14.20;94.10;;;;;;4315940;33;43039;-74
2022/05/28 05:51:09;;;;;;;;;;;14.20;94.00;;;;;;4315777;33;43675;-73
2022/05/28 05:53:39;;;;;;;;;;;14.20;93.90;;;;;;4315490;33;42634;-73
2022/05/28 05:56:12;;;;;;;;;;;14.20;94.10;;;;;;4302818;33;43082;-74
2022/05/28 05:58:42;;;;;;;;;;;14.20;94.30;;;;;;4315717;33;42616;-73
2022/05/28 06:01:09;;;;;;;;;;;14.20;94.40;;;;;;4315800;33;42974;-74
2022/05/28 06:03:44;;;;;;;;;;;14.20;94.50;;;;;;4315672;33;42538;-73
2022/05/28 06:06:17;;;;;;;;;;;14.20;94.40;;;;;;4302464;33;43654;-74
2022/05/28 06:08:45;;;;;;;;;;;14.20;94.50;;;;;;4315428;33;42522;-73
2022/05/28 06:11:18;;;;;;;;;;;14.20;94.30;;;;;;4315960;33;43742;-73
2022/05/28 06:13:53;;;;;;;;;;;14.20;94.50;;;;;;4316004;33;43569;-73
2022/05/28 06:16:24;;;;;;;;;;;14.20;94.40;;;;;;4315964;33;43095;-73
2022/05/28 06:19:06;;;;;;;;;;;14.20;94.70;;;;;;4302439;33;42519;-74
2022/05/28 06:21:33;;;;;;;;;;;14.20;94.80;;;;;;4302558;33;42166;-73
2022/05/28 06:24:12;;;;;;;;;;;14.30;94.70;;;;;;4315690;33;42203;-73
2022/05/28 06:26:41;;;;;;;;;;;14.30;94.90;;;;;;4315224;33;42587;-73
2022/05/28 06:29:14;;;;;;;;;;;14.30;95.30;;;;;;4303470;33;43095;-74
2022/05/28 06:31:41;;;;;;;;;;;14.30;95.10;;;;;;4302282;33;44339;-73
2022/05/28 06:34:11;;;;;;;;;;;14.30;95.30;;;;;;4315744;33;43016;-73
2022/05/28 06:36:45;;;;;;;;;;;14.30;95.20;;;;;;4303817;33;20037;-73
2022/05/28 06:39:17;;;;;;;;;;;14.30;95.00;;;;;;4302992;33;43743;-74
2022/05/28 06:41:44;;;;;;;;;;;14.30;95.20;;;;;;4315644;33;44223;-74
2022/05/28 06:44:14;;;;;;;;;;;14.30;95.20;;;;;;4315189;33;44271;-74
2022/05/28 06:46:43;;;;;;;;;;;14.40;95.10;;;;;;4315493;33;43008;-74
2022/05/28 06:49:11;;;;;;;;;;;14.40;95.30;;;;;;4302057;33;44828;-73
2022/05/28 06:51:41;;;;;;;;;;;14.30;95.20;;;;;;4315890;33;43082;-73
2022/05/28 06:54:11;;;;;;;;;;;14.40;95.20;;;;;;4315372;33;44010;-74
2022/05/28 06:56:43;;;;;;;;;;;14.40;95.40;;;;;;4315559;33;43689;-73
2022/05/28 06:59:13;;;;;;;;;;;14.40;95.50;;;;;;4315299;33;42553;-73
2022/05/28 07:01:43;;;;;;;;;;;14.40;95.40;;;;;;4317453;33;42969;-73
2022/05/28 07:04:13;;;;;;;;;;;14.40;95.30;;;;;;4318469;33;43076;-74
2022/05/28 07:06:40;;;;;;;;;;;14.40;95.40;;;;;;4318339;33;43021;-73
2022/05/28 07:09:07;;;;;;;;;;;14.40;95.30;;;;;;4304674;33;43708;-73
2022/05/28 07:11:34;;;;;;;;;;;14.40;95.10;;;;;;4317690;33;42721;-73
2022/05/28 07:14:01;;;;;;;;;;;14.40;95.30;;;;;;4304868;33;43663;-74
2022/05/28 07:16:28;;;;;;;;;;;14.50;95.10;;;;;;4318147;33;44645;-73
2022/05/28 07:18:55;;;;;;;;;;;14.40;95.20;;;;;;4304556;33;42468;-73
2022/05/28 07:21:23;;;;;;;;;;;14.40;94.90;;;;;;4318075;33;43693;-73
2022/05/28 07:23:51;;;;;;;;;;;14.40;95.10;;;;;;4317945;33;44231;-73
2022/05/28 07:26:18;;;;;;;;;;;14.50;94.90;;;;;;4317494;33;42725;-74
2022/05/28 07:28:46;;;;;;;;;;;14.50;95.00;;;;;;4304646;33;43650;-74
2022/05/28 07:31:21;;;;;;;;;;;14.50;94.90;;;;;;4317434;33;43698;-74
2022/05/28 07:33:49;;;;;;;;;;;14.50;95.00;;;;;;4304703;33;42827;-74
2022/05/28 07:36:18;;;;;;;;;;;14.50;95.10;;;;;;4317391;33;43720;-74
2022/05/28 07:38:45;;;;;;;;;;;14.50;95.20;;;;;;4304562;33;42125;-73
2022/05/28 07:41:14;;;;;;;;;;;14.50;95.10;;;;;;4317929;33;43719;-74
2022/05/28 07:43:42;;;;;;;;;;;14.50;95.20;;;;;;4317759;33;42144;-74
2022/05/28 07:46:10;;;;;;;;;;;14.50;95.20;;;;;;4317768;33;43631;-73
2022/05/28 07:48:38;;;;;;;;;;;14.60;95.30;;;;;;4317580;33;43706;-73
2022/05/28 07:51:06;;;;;;;;;;;14.60;95.00;;;;;;4317577;33;42607;-74
2022/05/28 07:53:33;;;;;;;;;;;14.60;95.10;;;;;;4317184;33;42128;-74
2022/05/28 07:56:01;;;;;;;;;;;14.60;95.00;;;;;;4304113;33;43857;-73
2022/05/28 07:58:28;;;;;;;;;;;14.60;94.90;;;;;;4303889;33;43584;-74
2022/05/28 08:00:55;;;;;;;;;;;14.60;94.90;;;;;;4317023;33;42869;-74
2022/05/28 08:03:23;;;;;;;;;;;14.60;94.80;;;;;;4317326;33;42413;-74
2022/05/28 08:05:51;;;;;;;;;;;14.60;94.70;;;;;;4303982;33;43394;-74
2022/05/28 08:08:19;;;;;;;;;;;14.60;94.80;;;;;;4317105;33;43686;-74
2022/05/28 08:10:46;;;;;;;;;;;14.60;94.70;;;;;;4316942;33;42866;-74
2022/05/28 08:13:15;;;;;;;;;;;14.60;94.60;;;;;;4303833;33;43705;-74
2022/05/28 08:15:43;;;;;;;;;;;14.60;94.50;;;;;;4304225;33;44183;-74
2022/05/28 08:18:11;;;;;;;;;;;14.60;94.50;;;;;;4303935;33;43376;-74
2022/05/28 08:23:23;;;;;;;;;;;14.60;94.50;;;;;;4317384;33;43700;-74
2022/05/28 08:25:50;;;;;;;;;;;14.60;94.50;;;;;;4316795;33;43028;-74
2022/05/28 08:28:18;;;;;;;;;;;14.60;94.40;;;;;;4317258;33;43037;-74
2022/05/28 08:30:46;;;;;;;;;;;14.60;94.40;;;;;;4304056;33;43741;-74
2022/05/28 08:33:14;;;;;;;;;;;14.60;94.70;;;;;;4303473;33;42569;-74
2022/05/28 08:35:43;;;;;;;;;;;14.60;94.80;;;;;;4303584;33;43699;-74
2022/05/28 08:38:11;;;;;;;;;;;14.70;94.80;;;;;;4316509;33;43795;-74
2022/05/28 08:40:43;;;;;;;;;;;14.60;94.60;;;;;;4316574;33;43026;-74
2022/05/28 08:43:11;;;;;;;;;;;14.70;94.60;;;;;;4303982;33;44213;-73
2022/05/28 08:45:39;;;;;;;;;;;14.70;94.60;;;;;;4303724;33;43862;-74
2022/05/28 08:48:06;;;;;;;;;;;14.70;94.30;;;;;;4317090;33;42983;-74
2022/05/28 08:50:36;;;;;;;;;;;14.70;94.20;;;;;;4316576;33;42964;-74
2022/05/28 08:53:06;;;;;;;;;;;14.70;94.50;;;;;;4316966;33;43994;-74
2022/05/28 08:55:36;;;;;;;;;;;14.70;94.20;;;;;;4303495;33;43618;-74
2022/05/28 08:58:03;;;;;;;;;;;14.70;94.10;;;;;;4316722;33;44215;-74
2022/05/28 09:00:30;;;;;;;;;;;14.70;94.10;;;;;;4316796;33;43698;-74
2022/05/28 09:03:03;;;;;;;;;;;14.80;94.40;;;;;;4315989;33;42498;-74
2022/05/28 09:05:53;;;;;;;;;;;14.80;94.10;;;;;;4303397;33;42167;-74
2022/05/28 09:08:32;;;;;;;;;;;14.80;94.00;;;;;;4308987;33;43700;-74
2022/05/28 09:11:02;;;;;;;;;;;14.80;94.10;;;;;;4316789;33;43679;-74
2022/05/28 09:13:38;;;;;;;;;;;14.80;94.00;;;;;;4316410;33;43665;-74
2022/05/28 09:16:07;;;;;;;;;;;14.80;93.70;;;;;;4303565;33;43753;-74
2022/05/28 09:18:37;;;;;;;;;;;14.80;93.60;;;;;;4316478;33;43706;-74
2022/05/28 09:21:04;;;;;;;;;;;14.80;93.40;;;;;;4316132;33;43773;-74
2022/05/28 09:23:36;;;;;;;;;;;14.80;93.70;;;;;;4316038;33;43656;-74
2022/05/28 09:26:04;;;;;;;;;;;14.80;93.80;;;;;;4316018;33;42898;-74
2022/05/28 09:28:40;;;;;;;;;;;14.80;93.80;;;;;;4302781;33;42995;-74
2022/05/28 09:31:26;;;;;;;;;;;14.80;94.00;;;;;;4316411;33;43032;-74
2022/05/28 09:34:16;;;;;;;;;;;14.80;93.60;;;;;;4316170;33;43149;-74
2022/05/28 09:36:56;;;;;;;;;;;14.80;93.60;;;;;;4316347;33;43695;-74
2022/05/28 09:39:44;;;;;;;;;;;14.80;93.80;;;;;;4303000;33;44239;-74
2022/05/28 09:42:28;;;;;;;;;;;14.80;93.70;;;;;;4315822;33;42737;-74
2022/05/28 09:45:11;;;;;;;;;;;14.80;93.80;;;;;;4316301;33;43037;-74
2022/05/28 09:47:49;;;;;;;;;;;14.80;93.80;;;;;;4316058;33;42495;-74
2022/05/28 09:50:22;;;;;;;;;;;14.80;93.70;;;;;;4316015;33;43663;-74
2022/05/28 09:55:52;;;;;;;;;;;14.80;93.80;;;;;;4316111;33;42974;-74
2022/05/28 09:58:20;;;;;;;;;;;14.80;93.60;;;;;;4302961;33;43749;-74
2022/05/28 10:00:48;;;;;;;;;;;14.80;93.60;;;;;;4302635;33;43077;-74
2022/05/28 10:06:14;;;;;;;;;;;14.80;93.60;;;;;;4315498;33;43715;-74
2022/05/28 10:08:42;;;;;;;;;;;14.90;93.60;;;;;;4302885;33;43801;-74
2022/05/28 10:11:12;;;;;;;;;;;14.90;93.70;;;;;;4316179;33;20006;-75
2022/05/28 10:13:47;;;;;;;;;;;14.90;93.40;;;;;;4315434;33;43890;-75
2022/05/28 10:16:19;;;;;;;;;;;14.80;93.60;;;;;;4315378;33;42070;-74
2022/05/28 10:19:14;;;;;;;;;;;14.90;93.70;;;;;;4315889;33;45156;-75
2022/05/28 10:21:47;;;;;;;;;;;14.90;93.60;;;;;;4315905;33;43652;-75
2022/05/28 10:24:18;;;;;;;;;;;14.90;93.50;;;;;;4315556;33;42503;-74
2022/05/28 10:26:53;;;;;;;;;;;14.90;93.60;;;;;;4315897;33;43565;-74
2022/05/28 10:29:27;;;;;;;;;;;15.00;93.60;;;;;;4315406;33;42659;-74
2022/05/28 10:31:54;;;;;;;;;;;15.00;92.90;;;;;;4302709;33;42986;-74
2022/05/28 10:34:42;;;;;;;;;;;15.00;92.40;;;;;;4315240;33;45772;-75
2022/05/28 10:37:16;;;;;;;;;;;15.00;92.20;;;;;;4318587;33;43294;-74
2022/05/28 10:39:43;;;;;;;;;;;15.00;92.70;;;;;;4318782;33;43024;-74
2022/05/28 10:42:12;;;;;;;;;;;15.10;92.40;;;;;;4319132;33;20006;-74
2022/05/28 10:44:40;;;;;;;;;;;15.10;92.90;;;;;;4305171;33;42917;-75
2022/05/28 10:47:13;;;;;;;;;;;15.10;92.30;;;;;;4318179;33;42456;-74
2022/05/28 10:49:56;;;;;;;;;;;15.10;92.00;;;;;;4318628;33;43694;-75
2022/05/28 10:52:49;;;;;;;;;;;15.10;92.50;;;;;;4318479;33;44276;-74
2022/05/28 10:55:33;;;;;;;;;;;15.10;92.20;;;;;;4318391;33;42838;-74
2022/05/28 10:58:15;;;;;;;;;;;15.10;92.30;;;;;;4305301;33;44276;-74
2022/05/28 11:00:52;;;;;;;;;;;15.20;92.60;;;;;;4305042;33;43583;-74
2022/05/28 11:03:30;;;;;;;;;;;15.10;92.80;;;;;;4317644;33;42593;-75
2022/05/28 11:06:04;;;;;;;;;;;15.10;92.90;;;;;;4304755;33;42620;-74
2022/05/28 11:08:45;;;;;;;;;;;15.10;92.50;;;;;;4318353;33;44858;-74
2022/05/28 11:11:22;;;;;;;;;;;15.10;92.30;;;;;;4318370;33;42939;-75
2022/05/28 11:13:49;;;;;;;;;;;15.20;92.80;;;;;;4317855;33;42917;-74
2022/05/28 11:16:31;;;;;;;;;;;15.20;91.90;;;;;;4317557;33;42924;-74
2022/05/28 11:19:09;;;;;;;;;;;15.20;92.00;;;;;;4318250;33;43477;-74
2022/05/28 11:22:14;;;;;;;;;;;15.20;92.40;;;;;;4318175;33;43109;-74
2022/05/28 11:24:47;;;;;;;;;;;15.20;92.10;;;;;;4246675;33;42431;-75
2022/05/28 11:27:33;;;;;;;;;;;15.20;91.10;;;;;;4257952;33;42874;-74
2022/05/28 11:30:17;;;;;;;;;;;15.20;91.60;;;;;;4288929;33;43679;-74
2022/05/28 11:32:47;;;;;;;;;;;15.30;91.30;;;;;;4304315;33;42646;-75
2022/05/28 11:35:33;;;;;;;;;;;15.30;91.70;;;;;;4318376;33;35556;-75
2022/05/28 11:38:04;;;;;;;;;;;15.30;91.70;;;;;;4304370;33;43015;-75
2022/05/28 11:40:34;;;;;;;;;;;15.40;91.70;;;;;;4317458;33;43695;-75
2022/05/28 11:43:04;;;;;;;;;;;15.40;91.50;;;;;;4304749;33;43061;-75
2022/05/28 11:45:53;;;;;;;;;;;15.40;91.80;;;;;;4317317;33;43598;-75
2022/05/28 11:51:35;;;;;;;;;;;15.40;92.10;;;;;;4317572;33;45027;-74
2022/05/28 11:54:09;;;;;;;;;;;15.40;92.00;;;;;;4317996;33;43427;-75
2022/05/28 11:56:36;;;;;;;;;;;15.40;91.60;;;;;;4317466;33;42559;-74
2022/05/28 11:59:06;;;;;;;;;;;15.40;91.80;;;;;;4303998;33;43650;-75
2022/05/28 12:01:49;;;;;;;;;;;15.40;91.70;;;;;;4303867;33;43651;-77
2022/05/28 12:04:16;;;;;;;;;;;15.40;91.40;;;;;;4317595;33;43696;-77
2022/05/28 12:07:02;;;;;;;;;;;15.30;91.60;;;;;;4317144;33;43649;-77
2022/05/28 12:09:32;;;;;;;;;;;15.40;91.80;;;;;;4317392;33;42850;-77
2022/05/28 12:11:59;;;;;;;;;;;15.40;91.80;;;;;;4317351;33;44720;-75
2022/05/28 12:14:28;;;;;;;;;;;15.40;91.70;;;;;;4304409;33;20040;-75
2022/05/28 12:17:07;;;;;;;;;;;15.40;91.60;;;;;;4316882;33;43096;-77
2022/05/28 12:19:42;;;;;;;;;;;15.40;91.00;;;;;;4304404;33;43692;-74
2022/05/28 12:22:24;;;;;;;;;;;15.40;91.20;;;;;;4304194;33;43608;-75
2022/05/28 12:25:10;;;;;;;;;;;15.50;91.40;;;;;;4303995;33;43725;-76
2022/05/28 12:27:40;;;;;;;;;;;15.50;91.60;;;;;;4316790;33;42443;-75
2022/05/28 12:30:22;;;;;;;;;;;15.50;91.40;;;;;;4316877;33;44608;-75
2022/05/28 12:32:51;;;;;;;;;;;15.60;91.60;;;;;;4303513;33;42487;-75
2022/05/28 12:35:18;;;;;;;;;;;15.60;91.60;;;;;;4316431;33;43034;-77
2022/05/28 12:38:11;;;;;;;;;;;15.60;91.80;;;;;;4316548;33;43049;-77
2022/05/28 12:40:54;;;;;;;;;;;15.60;91.50;;;;;;4300991;33;43774;-77
2022/05/28 12:43:34;;;;;;;;;;;15.60;91.30;;;;;;4316523;33;43558;-77
2022/05/28 12:46:33;;;;;;;;;;;15.70;91.10;;;;;;4316866;33;42514;-75
2022/05/28 12:49:06;;;;;;;;;;;15.70;91.20;;;;;;4303950;33;43193;-77
2022/05/28 12:51:50;;;;;;;;;;;15.70;90.80;;;;;;4316771;33;42144;-75
2022/05/28 12:54:31;;;;;;;;;;;15.70;91.30;;;;;;4316796;33;42646;-74
2022/05/28 12:57:10;;;;;;;;;;;15.70;91.00;;;;;;4316284;33;43695;-76
2022/05/28 12:59:42;;;;;;;;;;;15.70;90.70;;;;;;4316229;33;43646;-75
2022/05/28 13:02:20;;;;;;;;;;;15.70;90.90;;;;;;4303446;33;43882;-75
2022/05/28 13:04:51;;;;;;;;;;;15.70;90.70;;;;;;4316688;33;43058;-75
2022/05/28 13:07:21;;;;;;;;;;;15.70;89.20;;;;;;4316335;33;43120;-75
2022/05/28 13:09:50;;;;;;;;;;;15.70;88.30;;;;;;4303576;33;43779;-74
2022/05/28 13:12:29;;;;;;;;;;;15.80;90.40;;;;;;4316386;33;43032;-74
2022/05/28 13:15:00;;;;;;;;;;;15.80;90.60;;;;;;4304010;33;20411;-75
2022/05/28 13:17:44;;;;;;;;;;;15.80;90.40;;;;;;4316478;33;43040;-74
2022/05/28 13:20:23;;;;;;;;;;;15.80;90.80;;;;;;4316761;33;43033;-77
2022/05/28 13:22:50;;;;;;;;;;;15.80;90.60;;;;;;4316744;33;43013;-74
2022/05/28 13:25:36;;;;;;;;;;;15.80;90.60;;;;;;4303245;33;43098;-74
2022/05/28 13:28:13;;;;;;;;;;;15.80;90.70;;;;;;4316456;33;44224;-75
2022/05/28 13:30:51;;;;;;;;;;;15.80;90.50;;;;;;4302973;33;42885;-74
2022/05/28 13:33:19;;;;;;;;;;;15.90;90.60;;;;;;4316362;33;42182;-75
2022/05/28 13:35:48;;;;;;;;;;;15.80;90.20;;;;;;4315719;33;43178;-74
2022/05/28 13:38:16;;;;;;;;;;;15.80;90.10;;;;;;4315812;33;43747;-74
2022/05/28 13:40:45;;;;;;;;;;;15.90;90.50;;;;;;4315884;33;42469;-74
2022/05/28 13:43:13;;;;;;;;;;;15.90;89.80;;;;;;4316253;33;44143;-74
2022/05/28 13:45:42;;;;;;;;;;;15.90;90.00;;;;;;4316521;33;20020;-73
2022/05/28 13:48:20;;;;;;;;;;;15.90;90.20;;;;;;4316166;33;43023;-76
2022/05/28 13:50:49;;;;;;;;;;;15.90;90.10;;;;;;4303012;33;43588;-73
2022/05/28 13:53:26;;;;;;;;;;;15.90;90.40;;;;;;4315722;33;43485;-73
2022/05/28 13:55:58;;;;;;;;;;;15.90;88.30;;;;;;4316139;33;43383;-74
2022/05/28 13:58:27;;;;;;;;;;;15.90;90.60;;;;;;4316066;33;43099;-76
2022/05/28 14:01:04;;;;;;;;;;;15.90;90.80;;;;;;4315510;33;43845;-74
2022/05/28 14:03:33;;;;;;;;;;;15.90;90.80;;;;;;4302695;33;43690;-76
2022/05/28 14:06:01;;;;;;;;;;;15.90;90.70;;;;;;4315732;33;44622;-74
2022/05/28 14:08:29;;;;;;;;;;;16.00;90.90;;;;;;4315509;33;43753;-73
2022/05/28 14:11:13;;;;;;;;;;;16.00;91.10;;;;;;4315634;33;43697;-73
2022/05/28 14:13:45;;;;;;;;;;;16.00;90.60;;;;;;4302832;33;43658;-74
2022/05/28 14:16:20;;;;;;;;;;;16.00;90.90;;;;;;4316655;33;20036;-75
2022/05/28 14:18:48;;;;;;;;;;;16.00;90.70;;;;;;4315798;33;42903;-74
2022/05/28 14:21:15;;;;;;;;;;;16.00;91.00;;;;;;4315364;33;42433;-73
2022/05/28 14:23:43;;;;;;;;;;;16.10;90.20;;;;;;4315787;33;42490;-73
2022/05/28 14:26:12;;;;;;;;;;;16.10;87.80;;;;;;4315890;33;42830;-73
2022/05/28 14:28:40;;;;;;;;;;;16.10;86.40;;;;;;4315445;33;42458;-73
2022/05/28 14:31:10;;;;;;;;;;;16.10;90.30;;;;;;4315323;33;43018;-73
2022/05/28 14:33:40;;;;;;;;;;;16.10;90.40;;;;;;4302717;33;43889;-73
2022/05/28 14:36:11;;;;;;;;;;;16.10;90.50;;;;;;4315182;33;44653;-74
2022/05/28 14:38:39;;;;;;;;;;;16.10;90.50;;;;;;4315860;33;44871;-73
2022/05/28 14:41:11;;;;;;;;;;;16.10;90.20;;;;;;4315260;33;42993;-73
2022/05/28 14:43:39;;;;;;;;;;;16.10;90.40;;;;;;4316070;33;43811;-74
2022/05/28 14:46:10;;;;;;;;;;;16.10;90.40;;;;;;4302254;33;42461;-75
2022/05/28 14:48:38;;;;;;;;;;;16.10;90.40;;;;;;4302092;33;43777;-77
2022/05/28 14:51:05;;;;;;;;;;;16.10;90.70;;;;;;4302339;33;43715;-74
2022/05/28 14:53:34;;;;;;;;;;;16.10;90.80;;;;;;4315178;33;42893;-76
2022/05/28 14:56:12;;;;;;;;;;;16.10;90.70;;;;;;4302576;33;43885;-76